createdAt,value
2018-03-04T00:00:46.115Z,-7.29
2018-03-04T00:01:47.499Z,-7.37
2018-03-04T00:02:48.873Z,-7.34
2018-03-04T00:03:50.232Z,-7.35
2018-03-04T00:04:51.607Z,-7.34
2018-03-04T00:05:52.990Z,-7.35
2018-03-04T00:06:54.361Z,-7.37
2018-03-04T00:07:55.729Z,-7.38
2018-03-04T00:08:57.106Z,-7.38
2018-03-04T00:09:58.482Z,-7.45
2018-03-04T00:10:59.856Z,-7.39
2018-03-04T00:12:01.234Z,-7.45
2018-03-04T00:13:02.607Z,-7.46
2018-03-04T00:14:03.975Z,-7.38
2018-03-04T00:15:05.348Z,-7.39
2018-03-04T00:16:06.706Z,-7.47
2018-03-04T00:17:08.081Z,-7.41
2018-03-04T00:18:09.450Z,-7.42
2018-03-04T00:19:10.817Z,-7.39
2018-03-04T00:20:12.206Z,-7.46
2018-03-04T00:21:13.581Z,-7.41
2018-03-04T00:22:14.943Z,-7.46
2018-03-04T00:23:16.318Z,-7.45
2018-03-04T00:24:17.680Z,-7.46
2018-03-04T00:25:19.050Z,-7.42
2018-03-04T00:26:20.424Z,-7.52
2018-03-04T00:27:21.812Z,-7.39
2018-03-04T00:28:23.177Z,-7.47
2018-03-04T00:29:24.551Z,-7.56
2018-03-04T00:30:25.915Z,-7.49
2018-03-04T00:31:27.291Z,-7.52
2018-03-04T00:32:28.669Z,-7.55
2018-03-04T00:33:30.033Z,-7.60
2018-03-04T00:34:31.402Z,-7.55
2018-03-04T00:35:32.763Z,-7.38
2018-03-04T00:36:34.151Z,-7.41
2018-03-04T00:37:35.521Z,-7.46
2018-03-04T00:38:36.890Z,-7.49
2018-03-04T00:39:38.268Z,-7.39
2018-03-04T00:40:39.629Z,-7.41
2018-03-04T00:41:41.002Z,-7.34
2018-03-04T00:42:42.368Z,-7.38
2018-03-04T00:43:43.740Z,-7.27
2018-03-04T00:44:45.114Z,-7.38
2018-03-04T00:45:46.488Z,-7.32
2018-03-04T00:46:47.854Z,-7.32
2018-03-04T00:47:50.208Z,-7.34
2018-03-04T00:48:51.575Z,-7.38
2018-03-04T00:49:52.969Z,-7.31
2018-03-04T00:50:54.340Z,-7.29
2018-03-04T00:51:55.713Z,-7.32
2018-03-04T00:52:57.093Z,-7.38
2018-03-04T00:53:58.455Z,-7.29
2018-03-04T00:54:59.837Z,-7.37
2018-03-04T00:56:01.204Z,-7.31
2018-03-04T00:57:02.579Z,-7.27
2018-03-04T00:58:03.950Z,-7.35
2018-03-04T00:59:05.336Z,-7.34
2018-03-04T01:00:06.699Z,-7.21
2018-03-04T01:01:08.075Z,-7.24
2018-03-04T01:02:09.447Z,-7.29
2018-03-04T01:03:11.377Z,-7.29
2018-03-04T01:04:12.752Z,-7.24
2018-03-04T01:05:14.115Z,-7.29
2018-03-04T01:06:15.483Z,-7.28
2018-03-04T01:07:16.852Z,-7.31
2018-03-04T01:08:18.225Z,-7.35
2018-03-04T01:09:19.592Z,-7.28
2018-03-04T01:10:20.961Z,-7.29
2018-03-04T01:11:22.330Z,-7.28
2018-03-04T01:12:23.698Z,-7.37
2018-03-04T01:13:25.077Z,-7.32
2018-03-04T01:14:26.451Z,-7.29
2018-03-04T01:15:27.827Z,-7.29
2018-03-04T01:16:29.206Z,-7.31
2018-03-04T01:17:30.584Z,-7.39
2018-03-04T01:18:31.942Z,-7.34
2018-03-04T01:19:33.321Z,-7.46
2018-03-04T01:20:34.678Z,-7.37
2018-03-04T01:21:36.015Z,-7.37
2018-03-04T01:22:37.395Z,-7.47
2018-03-04T01:23:38.766Z,-7.41
2018-03-04T01:24:40.132Z,-7.37
2018-03-04T01:25:41.513Z,-7.39
2018-03-04T01:26:42.883Z,-7.42
2018-03-04T01:27:44.245Z,-7.38
2018-03-04T01:28:45.620Z,-7.45
2018-03-04T01:29:46.994Z,-7.35
2018-03-04T01:30:48.370Z,-7.52
2018-03-04T01:31:49.731Z,-7.49
2018-03-04T01:32:51.105Z,-7.47
2018-03-04T01:33:52.472Z,-7.46
2018-03-04T01:34:53.853Z,-7.39
2018-03-04T01:35:55.213Z,-7.41
2018-03-04T01:36:56.590Z,-7.46
2018-03-04T01:37:57.963Z,-7.39
2018-03-04T01:38:59.338Z,-7.41
2018-03-04T01:40:00.710Z,-7.41
2018-03-04T01:41:02.088Z,-7.42
2018-03-04T01:42:03.456Z,-7.46
2018-03-04T01:43:04.830Z,-7.49
2018-03-04T01:44:06.192Z,-7.49
2018-03-04T01:45:07.562Z,-7.41
2018-03-04T01:46:09.856Z,-7.42
2018-03-04T01:47:11.230Z,-7.46
2018-03-04T01:48:12.612Z,-7.39
2018-03-04T01:49:13.984Z,-7.42
2018-03-04T01:50:15.356Z,-7.49
2018-03-04T01:51:16.726Z,-7.46
2018-03-04T01:52:18.090Z,-7.41
2018-03-04T01:53:19.462Z,-7.39
2018-03-04T01:54:20.836Z,-7.42
2018-03-04T01:55:22.207Z,-7.46
2018-03-04T01:56:23.581Z,-7.49
2018-03-04T01:57:24.941Z,-7.46
2018-03-04T01:58:26.319Z,-7.42
2018-03-04T01:59:27.695Z,-7.50
2018-03-04T02:00:29.061Z,-7.47
2018-03-04T02:01:30.438Z,-7.52
2018-03-04T02:02:31.814Z,-7.45
2018-03-04T02:03:33.199Z,-7.50
2018-03-04T02:04:34.561Z,-7.42
2018-03-04T02:05:35.942Z,-7.42
2018-03-04T02:06:37.307Z,-7.47
2018-03-04T02:07:38.675Z,-7.42
2018-03-04T02:08:40.048Z,-7.49
2018-03-04T02:09:41.418Z,-7.52
2018-03-04T02:10:42.793Z,-7.59
2018-03-04T02:11:44.166Z,-7.42
2018-03-04T02:12:45.516Z,-7.55
2018-03-04T02:13:46.886Z,-7.49
2018-03-04T02:14:48.251Z,-7.60
2018-03-04T02:15:49.622Z,-7.55
2018-03-04T02:16:50.990Z,-7.60
2018-03-04T02:17:52.370Z,-7.55
2018-03-04T02:18:53.735Z,-7.57
2018-03-04T02:19:55.109Z,-7.55
2018-03-04T02:20:56.491Z,-7.56
2018-03-04T02:21:57.849Z,-7.64
2018-03-04T02:22:59.180Z,-7.62
2018-03-04T02:24:00.559Z,-7.62
2018-03-04T02:25:01.928Z,-7.62
2018-03-04T02:26:03.300Z,-7.74
2018-03-04T02:27:04.672Z,-7.68
2018-03-04T02:28:06.039Z,-7.74
2018-03-04T02:29:07.416Z,-7.73
2018-03-04T02:30:08.778Z,-7.70
2018-03-04T02:31:10.158Z,-7.66
2018-03-04T02:32:11.528Z,-7.73
2018-03-04T02:33:12.910Z,-7.64
2018-03-04T02:34:14.278Z,-7.74
2018-03-04T02:35:15.644Z,-7.73
2018-03-04T02:36:17.024Z,-7.76
2018-03-04T02:37:18.394Z,-7.80
2018-03-04T02:38:19.760Z,-7.77
2018-03-04T02:39:21.137Z,-7.80
2018-03-04T02:40:22.492Z,-7.68
2018-03-04T02:41:23.862Z,-7.71
2018-03-04T02:42:25.231Z,-7.73
2018-03-04T02:43:26.600Z,-7.67
2018-03-04T02:44:27.969Z,-7.68
2018-03-04T02:45:29.331Z,-7.76
2018-03-04T02:46:30.690Z,-7.70
2018-03-04T02:47:32.059Z,-7.73
2018-03-04T02:48:33.423Z,-7.71
2018-03-04T02:49:34.793Z,-7.77
2018-03-04T02:50:36.152Z,-7.73
2018-03-04T02:51:37.531Z,-7.76
2018-03-04T02:52:38.907Z,-7.70
2018-03-04T02:53:40.266Z,-7.73
2018-03-04T02:54:41.646Z,-7.74
2018-03-04T02:55:43.031Z,-7.71
2018-03-04T02:56:44.391Z,-7.73
2018-03-04T02:57:45.767Z,-7.77
2018-03-04T02:58:47.119Z,-7.76
2018-03-04T02:59:48.488Z,-7.74
2018-03-04T03:00:49.858Z,-7.67
2018-03-04T03:01:52.116Z,-7.77
2018-03-04T03:02:53.490Z,-7.70
2018-03-04T03:03:54.862Z,-7.71
2018-03-04T03:04:56.226Z,-7.70
2018-03-04T03:05:57.602Z,-7.76
2018-03-04T03:06:58.963Z,-7.68
2018-03-04T03:08:00.329Z,-7.66
2018-03-04T03:09:01.708Z,-7.60
2018-03-04T03:10:03.080Z,-7.71
2018-03-04T03:11:04.444Z,-7.68
2018-03-04T03:12:05.813Z,-7.74
2018-03-04T03:13:07.181Z,-7.60
2018-03-04T03:14:08.553Z,-7.67
2018-03-04T03:15:09.934Z,-7.71
2018-03-04T03:16:11.296Z,-7.62
2018-03-04T03:17:12.656Z,-7.57
2018-03-04T03:18:14.027Z,-7.55
2018-03-04T03:19:15.404Z,-7.60
2018-03-04T03:20:16.763Z,-7.57
2018-03-04T03:21:18.133Z,-7.50
2018-03-04T03:22:19.507Z,-7.56
2018-03-04T03:23:20.882Z,-7.64
2018-03-04T03:24:22.245Z,-7.55
2018-03-04T03:25:23.627Z,-7.53
2018-03-04T03:26:25.002Z,-7.42
2018-03-04T03:27:26.382Z,-7.46
2018-03-04T03:28:27.749Z,-7.42
2018-03-04T03:29:29.131Z,-7.39
2018-03-04T03:30:30.498Z,-7.42
2018-03-04T03:31:31.871Z,-7.45
2018-03-04T03:32:33.242Z,-7.45
2018-03-04T03:33:34.621Z,-7.38
2018-03-04T03:34:35.979Z,-7.46
2018-03-04T03:35:37.358Z,-7.41
2018-03-04T03:36:38.730Z,-7.39
2018-03-04T03:37:40.102Z,-7.41
2018-03-04T03:38:41.492Z,-7.47
2018-03-04T03:39:42.858Z,-7.45
2018-03-04T03:40:44.221Z,-7.50
2018-03-04T03:41:45.595Z,-7.47
2018-03-04T03:42:46.964Z,-7.45
2018-03-04T03:43:48.332Z,-7.41
2018-03-04T03:44:49.689Z,-7.39
2018-03-04T03:45:51.060Z,-7.45
2018-03-04T03:46:52.443Z,-7.45
2018-03-04T03:47:53.821Z,-7.42
2018-03-04T03:48:55.187Z,-7.49
2018-03-04T03:49:56.559Z,-7.45
2018-03-04T03:50:57.927Z,-7.46
2018-03-04T03:51:59.313Z,-7.45
2018-03-04T03:53:00.673Z,-7.47
2018-03-04T03:54:02.042Z,-7.47
2018-03-04T03:55:03.413Z,-7.45
2018-03-04T03:56:04.784Z,-7.47
2018-03-04T03:57:06.155Z,-7.49
2018-03-04T03:58:07.523Z,-7.52
2018-03-04T03:59:08.885Z,-7.55
2018-03-04T04:00:10.249Z,-7.55
2018-03-04T04:01:11.628Z,-7.52
2018-03-04T04:02:13.000Z,-7.57
2018-03-04T04:03:14.366Z,-7.53
2018-03-04T04:04:15.748Z,-7.56
2018-03-04T04:05:17.114Z,-7.56
2018-03-04T04:06:18.488Z,-7.66
2018-03-04T04:07:19.866Z,-7.67
2018-03-04T04:08:21.234Z,-7.64
2018-03-04T04:09:22.597Z,-7.66
2018-03-04T04:10:23.961Z,-7.70
2018-03-04T04:11:25.328Z,-7.71
2018-03-04T04:12:26.698Z,-7.59
2018-03-04T04:13:28.085Z,-7.71
2018-03-04T04:14:29.439Z,-7.67
2018-03-04T04:15:30.811Z,-7.70
2018-03-04T04:16:32.181Z,-7.67
2018-03-04T04:17:33.551Z,-7.71
2018-03-04T04:18:34.930Z,-7.67
2018-03-04T04:19:36.295Z,-7.68
2018-03-04T04:20:37.668Z,-7.68
2018-03-04T04:21:39.032Z,-7.67
2018-03-04T04:22:40.423Z,-7.73
2018-03-04T04:23:41.789Z,-7.73
2018-03-04T04:24:43.151Z,-7.76
2018-03-04T04:25:44.513Z,-7.71
2018-03-04T04:26:45.894Z,-7.80
2018-03-04T04:27:47.265Z,-7.68
2018-03-04T04:28:48.629Z,-7.76
2018-03-04T04:29:49.994Z,-7.71
2018-03-04T04:30:51.360Z,-7.71
2018-03-04T04:31:52.726Z,-7.73
2018-03-04T04:32:54.102Z,-7.70
2018-03-04T04:33:55.468Z,-7.74
2018-03-04T04:34:56.840Z,-7.73
2018-03-04T04:35:58.196Z,-7.73
2018-03-04T04:36:59.560Z,-7.77
2018-03-04T04:38:00.946Z,-7.78
2018-03-04T04:39:02.338Z,-7.85
2018-03-04T04:40:03.712Z,-7.82
2018-03-04T04:41:05.085Z,-7.82
2018-03-04T04:42:06.459Z,-7.84
2018-03-04T04:43:07.828Z,-7.80
2018-03-04T04:44:09.199Z,-7.82
2018-03-04T04:45:10.576Z,-7.80
2018-03-04T04:46:11.936Z,-7.84
2018-03-04T04:47:13.312Z,-7.78
2018-03-04T04:48:14.682Z,-7.76
2018-03-04T04:49:16.047Z,-7.78
2018-03-04T04:50:17.417Z,-7.87
2018-03-04T04:51:18.779Z,-7.84
2018-03-04T04:52:20.142Z,-7.85
2018-03-04T04:53:21.513Z,-7.87
2018-03-04T04:54:22.883Z,-7.84
2018-03-04T04:55:24.250Z,-7.84
2018-03-04T04:56:25.630Z,-7.76
2018-03-04T04:57:26.994Z,-7.87
2018-03-04T04:58:28.367Z,-7.84
2018-03-04T04:59:29.736Z,-7.84
2018-03-04T05:00:31.106Z,-7.85
2018-03-04T05:01:32.474Z,-7.82
2018-03-04T05:02:33.841Z,-7.80
2018-03-04T05:03:35.206Z,-7.80
2018-03-04T05:04:36.580Z,-7.84
2018-03-04T05:05:37.948Z,-7.87
2018-03-04T05:06:39.325Z,-7.85
2018-03-04T05:07:40.686Z,-7.84
2018-03-04T05:08:42.064Z,-7.80
2018-03-04T05:09:43.433Z,-7.89
2018-03-04T05:10:44.802Z,-7.85
2018-03-04T05:11:46.162Z,-7.89
2018-03-04T05:12:47.533Z,-7.78
2018-03-04T05:13:48.908Z,-7.88
2018-03-04T05:14:50.266Z,-7.84
2018-03-04T05:15:51.652Z,-7.91
2018-03-04T05:16:53.005Z,-7.91
2018-03-04T05:17:54.377Z,-7.85
2018-03-04T05:18:55.758Z,-7.96
2018-03-04T05:19:57.124Z,-7.95
2018-03-04T05:20:58.500Z,-7.88
2018-03-04T05:21:59.877Z,-7.85
2018-03-04T05:23:01.259Z,-7.94
2018-03-04T05:24:02.628Z,-7.89
2018-03-04T05:25:04.002Z,-7.94
2018-03-04T05:26:05.376Z,-7.91
2018-03-04T05:27:06.749Z,-7.96
2018-03-04T05:28:08.117Z,-7.85
2018-03-04T05:29:09.481Z,-7.82
2018-03-04T05:30:10.846Z,-7.82
2018-03-04T05:31:12.230Z,-7.84
2018-03-04T05:32:13.606Z,-7.87
2018-03-04T05:33:15.435Z,-7.85
2018-03-04T05:34:16.284Z,-7.92
2018-03-04T05:35:17.644Z,-7.89
2018-03-04T05:36:19.015Z,-7.91
2018-03-04T05:37:20.399Z,-7.87
2018-03-04T05:38:21.773Z,-7.92
2018-03-04T05:39:23.146Z,-7.85
2018-03-04T05:40:24.527Z,-7.85
2018-03-04T05:41:25.903Z,-7.80
2018-03-04T05:42:27.327Z,-7.89
2018-03-04T05:43:28.696Z,-7.85
2018-03-04T05:44:30.071Z,-7.78
2018-03-04T05:45:32.309Z,-7.78
2018-03-04T05:46:33.765Z,-7.85
2018-03-04T05:47:35.143Z,-7.80
2018-03-04T05:48:36.688Z,-7.84
2018-03-04T05:49:38.054Z,-7.78
2018-03-04T05:50:39.435Z,-7.77
2018-03-04T05:51:40.798Z,-7.78
2018-03-04T05:52:42.269Z,-7.84
2018-03-04T05:53:43.638Z,-7.80
2018-03-04T05:54:45.016Z,-7.87
2018-03-04T05:55:46.375Z,-7.84
2018-03-04T05:56:47.757Z,-7.84
2018-03-04T05:57:49.126Z,-7.88
2018-03-04T05:58:50.492Z,-7.87
2018-03-04T05:59:51.876Z,-7.88
2018-03-04T06:00:53.245Z,-7.85
2018-03-04T06:01:54.628Z,-7.92
2018-03-04T06:02:56.002Z,-7.78
2018-03-04T06:03:57.522Z,-7.91
2018-03-04T06:04:58.891Z,-7.78
2018-03-04T06:06:00.275Z,-7.76
2018-03-04T06:07:02.490Z,-7.88
2018-03-04T06:08:03.868Z,-7.85
2018-03-04T06:09:05.233Z,-7.85
2018-03-04T06:10:06.653Z,-7.84
2018-03-04T06:11:08.033Z,-7.78
2018-03-04T06:12:09.409Z,-7.71
2018-03-04T06:13:10.816Z,-7.87
2018-03-04T06:14:12.185Z,-7.85
2018-03-04T06:15:13.557Z,-7.76
2018-03-04T06:16:14.932Z,-7.80
2018-03-04T06:17:16.309Z,-7.73
2018-03-04T06:18:17.667Z,-7.74
2018-03-04T06:19:19.045Z,-7.85
2018-03-04T06:20:20.419Z,-7.76
2018-03-04T06:21:21.796Z,-7.77
2018-03-04T06:22:23.164Z,-7.70
2018-03-04T06:23:24.536Z,-7.70
2018-03-04T06:24:25.910Z,-7.76
2018-03-04T06:25:27.293Z,-7.67
2018-03-04T06:26:28.654Z,-7.66
2018-03-04T06:27:30.036Z,-7.70
2018-03-04T06:28:31.428Z,-7.67
2018-03-04T06:29:32.824Z,-7.70
2018-03-04T06:30:34.183Z,-7.53
2018-03-04T06:31:35.557Z,-7.56
2018-03-04T06:32:37.504Z,-7.59
2018-03-04T06:33:38.871Z,-7.53
2018-03-04T06:34:40.251Z,-7.57
2018-03-04T06:35:41.902Z,-7.46
2018-03-04T06:36:43.283Z,-7.42
2018-03-04T06:37:44.651Z,-7.39
2018-03-04T06:38:46.021Z,-7.45
2018-03-04T06:39:47.453Z,-7.39
2018-03-04T06:40:48.821Z,-7.41
2018-03-04T06:41:50.424Z,-7.23
2018-03-04T06:42:51.788Z,-7.11
2018-03-04T06:43:53.166Z,-7.05
2018-03-04T06:44:54.540Z,-6.92
2018-03-04T06:45:55.913Z,-6.90
2018-03-04T06:46:57.280Z,-6.77
2018-03-04T06:48:00.340Z,-6.75
2018-03-04T06:49:01.682Z,-6.67
2018-03-04T06:50:03.062Z,-6.59
2018-03-04T06:51:04.435Z,-6.48
2018-03-04T06:52:05.897Z,-6.55
2018-03-04T06:53:07.268Z,-6.41
2018-03-04T06:54:08.666Z,-6.31
2018-03-04T06:55:10.038Z,-6.37
2018-03-04T06:56:11.410Z,-6.17
2018-03-04T06:57:12.808Z,-6.16
2018-03-04T06:58:14.176Z,-6.21
2018-03-04T06:59:15.563Z,-6.16
2018-03-04T07:00:16.935Z,-5.98
2018-03-04T07:01:18.306Z,-6.08
2018-03-04T07:02:19.693Z,-5.99
2018-03-04T07:03:21.070Z,-5.88
2018-03-04T07:04:22.447Z,-5.88
2018-03-04T07:05:23.823Z,-5.82
2018-03-04T07:06:25.193Z,-5.78
2018-03-04T07:07:26.573Z,-5.82
2018-03-04T07:08:27.953Z,-5.82
2018-03-04T07:09:29.323Z,-5.75
2018-03-04T07:10:30.708Z,-5.71
2018-03-04T07:11:32.075Z,-5.66
2018-03-04T07:12:33.463Z,-5.53
2018-03-04T07:13:34.836Z,-5.60
2018-03-04T07:14:36.214Z,-5.57
2018-03-04T07:15:37.584Z,-5.45
2018-03-04T07:16:38.956Z,-5.34
2018-03-04T07:17:40.342Z,-5.28
2018-03-04T07:18:41.709Z,-5.24
2018-03-04T07:19:43.097Z,-5.06
2018-03-04T07:20:44.467Z,-5.20
2018-03-04T07:21:45.841Z,-5.21
2018-03-04T07:22:47.218Z,-5.17
2018-03-04T07:23:49.542Z,-5.03
2018-03-04T07:24:51.573Z,-5.08
2018-03-04T07:25:53.028Z,-4.97
2018-03-04T07:26:55.128Z,-4.99
2018-03-04T07:27:56.514Z,-4.77
2018-03-04T07:28:57.880Z,-4.72
2018-03-04T07:29:59.481Z,-4.52
2018-03-04T07:31:00.720Z,-4.13
2018-03-04T07:32:02.341Z,-3.99
2018-03-04T07:33:03.733Z,-3.83
2018-03-04T07:34:05.100Z,-3.65
2018-03-04T07:35:06.537Z,-3.62
2018-03-04T07:36:07.858Z,-3.43
2018-03-04T07:37:09.240Z,-3.37
2018-03-04T07:38:10.628Z,-3.37
2018-03-04T07:39:12.004Z,-3.43
2018-03-04T07:40:15.178Z,-3.51
2018-03-04T07:41:16.662Z,-3.64
2018-03-04T07:42:18.056Z,-3.65
2018-03-04T07:43:19.434Z,-3.81
2018-03-04T07:44:20.842Z,-3.89
2018-03-04T07:45:22.220Z,-3.79
2018-03-04T07:46:23.607Z,-3.91
2018-03-04T07:47:24.980Z,-3.94
2018-03-04T07:48:26.390Z,-4.01
2018-03-04T07:49:27.756Z,-4.01
2018-03-04T07:50:29.150Z,-3.86
2018-03-04T07:51:30.526Z,-3.83
2018-03-04T07:52:31.984Z,-3.88
2018-03-04T07:53:33.292Z,-3.95
2018-03-04T07:54:34.684Z,-3.86
2018-03-04T07:55:36.073Z,-3.89
2018-03-04T07:56:37.458Z,-3.98
2018-03-04T07:57:38.833Z,-3.98
2018-03-04T07:58:40.215Z,-3.83
2018-03-04T07:59:41.640Z,-3.83
2018-03-04T08:00:43.024Z,-3.72
2018-03-04T08:01:44.658Z,-3.69
2018-03-04T08:02:46.021Z,-3.59
2018-03-04T08:03:47.427Z,-3.69
2018-03-04T08:04:48.822Z,-3.70
2018-03-04T08:05:50.190Z,-3.81
2018-03-04T08:06:51.571Z,-3.76
2018-03-04T08:07:52.956Z,-3.74
2018-03-04T08:08:54.352Z,-3.61
2018-03-04T08:09:55.735Z,-3.55
2018-03-04T08:10:57.119Z,-3.34
2018-03-04T08:11:58.493Z,-2.83
2018-03-04T08:12:59.878Z,-2.13
2018-03-04T08:14:01.248Z,-1.53
2018-03-04T08:15:02.650Z,-0.86
2018-03-04T08:16:04.016Z,-0.20
2018-03-04T08:17:05.394Z,0.19
2018-03-04T08:18:06.761Z,0.62
2018-03-04T08:19:08.173Z,1.07
2018-03-04T08:20:10.154Z,1.75
2018-03-04T08:21:11.552Z,2.09
2018-03-04T08:22:12.948Z,2.62
2018-03-04T08:23:14.332Z,3.17
2018-03-04T08:24:15.706Z,3.64
2018-03-04T08:25:17.101Z,3.84
2018-03-04T08:26:18.502Z,4.14
2018-03-04T08:27:20.415Z,4.56
2018-03-04T08:28:21.857Z,5.08
2018-03-04T08:29:23.249Z,5.44
2018-03-04T08:30:24.624Z,5.98
2018-03-04T08:31:26.017Z,6.14
2018-03-04T08:32:27.396Z,6.01
2018-03-04T08:33:28.740Z,6.05
2018-03-04T08:34:30.174Z,6.08
2018-03-04T08:35:31.468Z,6.32
2018-03-04T08:36:32.872Z,6.10
2018-03-04T08:37:34.263Z,5.95
2018-03-04T08:38:35.657Z,5.96
2018-03-04T08:39:37.060Z,6.48
2018-03-04T08:40:38.472Z,7.12
2018-03-04T08:41:39.857Z,7.41
2018-03-04T08:42:41.251Z,8.17
2018-03-04T08:43:42.644Z,8.64
2018-03-04T08:44:44.024Z,8.86
2018-03-04T08:45:45.420Z,9.55
2018-03-04T08:46:46.828Z,10.35
2018-03-04T08:47:48.242Z,10.57
2018-03-04T08:48:49.635Z,11.19
2018-03-04T08:49:51.032Z,10.93
2018-03-04T08:50:52.428Z,10.24
2018-03-04T08:51:53.819Z,9.85
2018-03-04T08:52:55.215Z,9.19
2018-03-04T08:53:56.610Z,8.88
2018-03-04T08:54:58.012Z,9.24
2018-03-04T08:55:59.442Z,9.86
2018-03-04T08:57:00.865Z,8.78
2018-03-04T08:58:02.248Z,8.07
2018-03-04T08:59:03.639Z,8.13
2018-03-04T09:00:05.036Z,7.82
2018-03-04T09:01:06.437Z,7.79
2018-03-04T09:02:07.839Z,7.70
2018-03-04T09:03:09.234Z,7.45
2018-03-04T09:04:10.678Z,7.12
2018-03-04T09:05:13.080Z,7.00
2018-03-04T09:06:14.472Z,6.93
2018-03-04T09:07:15.874Z,6.96
2018-03-04T09:08:17.276Z,7.14
2018-03-04T09:09:18.662Z,6.28
2018-03-04T09:10:20.067Z,5.66
2018-03-04T09:11:21.458Z,5.70
2018-03-04T09:12:22.859Z,6.50
2018-03-04T09:13:24.262Z,7.76
2018-03-04T09:14:25.683Z,8.57
2018-03-04T09:15:27.104Z,8.70
2018-03-04T09:16:28.483Z,8.82
2018-03-04T09:17:29.888Z,8.96
2018-03-04T09:18:31.292Z,9.62
2018-03-04T09:19:32.679Z,10.38
2018-03-04T09:20:34.081Z,10.31
2018-03-04T09:21:35.483Z,10.43
2018-03-04T09:22:36.874Z,10.78
2018-03-04T09:23:38.267Z,11.51
2018-03-04T09:24:40.159Z,11.93
2018-03-04T09:25:41.559Z,12.15
2018-03-04T09:26:42.974Z,12.56
2018-03-04T09:27:44.355Z,13.24
2018-03-04T09:28:45.763Z,13.51
2018-03-04T09:29:47.162Z,13.96
2018-03-04T09:30:48.579Z,14.69
2018-03-04T09:31:50.853Z,14.82
2018-03-04T09:32:52.291Z,14.91
2018-03-04T09:33:53.719Z,14.86
2018-03-04T09:34:55.113Z,14.35
2018-03-04T09:35:56.506Z,14.95
2018-03-04T09:36:57.917Z,15.30
2018-03-04T09:37:59.491Z,15.98
2018-03-04T09:39:00.896Z,16.44
2018-03-04T09:40:02.317Z,16.95
2018-03-04T09:41:03.720Z,17.09
2018-03-04T09:42:05.116Z,17.65
2018-03-04T09:43:06.521Z,18.02
2018-03-04T09:44:07.966Z,18.60
2018-03-04T09:45:09.303Z,18.42
2018-03-04T09:46:10.708Z,18.05
2018-03-04T09:47:12.111Z,18.23
2018-03-04T09:48:13.520Z,18.21
2018-03-04T09:49:14.913Z,18.46
2018-03-04T09:50:17.221Z,17.65
2018-03-04T09:51:18.628Z,17.45
2018-03-04T09:52:20.040Z,17.95
2018-03-04T09:53:21.447Z,17.63
2018-03-04T09:54:22.801Z,17.89
2018-03-04T09:55:24.223Z,17.39
2018-03-04T09:56:25.621Z,17.00
2018-03-04T09:57:27.024Z,17.21
2018-03-04T09:58:28.451Z,17.62
2018-03-04T09:59:29.893Z,17.10
2018-03-04T10:00:31.314Z,16.55
2018-03-04T10:01:32.812Z,15.73
2018-03-04T10:02:34.170Z,14.35
2018-03-04T10:03:36.131Z,13.62
2018-03-04T10:04:37.544Z,13.90
2018-03-04T10:05:38.983Z,14.67
2018-03-04T10:06:40.362Z,15.55
2018-03-04T10:07:41.785Z,16.62
2018-03-04T10:08:43.179Z,17.39
2018-03-04T10:09:44.593Z,18.20
2018-03-04T10:10:45.998Z,17.55
2018-03-04T10:11:47.396Z,17.71
2018-03-04T10:12:48.858Z,17.86
2018-03-04T10:13:50.266Z,16.88
2018-03-04T10:14:51.717Z,16.45
2018-03-04T10:15:53.116Z,16.50
2018-03-04T10:16:54.547Z,16.92
2018-03-04T10:17:55.951Z,17.24
2018-03-04T10:18:57.363Z,16.91
2018-03-04T10:19:58.762Z,16.82
2018-03-04T10:21:00.177Z,17.66
2018-03-04T10:22:02.548Z,18.57
2018-03-04T10:23:03.936Z,18.23
2018-03-04T10:24:05.353Z,17.74
2018-03-04T10:25:06.764Z,17.32
2018-03-04T10:26:08.211Z,17.60
2018-03-04T10:27:09.589Z,17.73
2018-03-04T10:28:11.004Z,18.57
2018-03-04T10:29:12.414Z,18.50
2018-03-04T10:30:13.821Z,18.34
2018-03-04T10:31:16.118Z,18.72
2018-03-04T10:32:17.522Z,19.70
2018-03-04T10:33:18.916Z,20.25
2018-03-04T10:34:20.332Z,20.54
2018-03-04T10:35:21.726Z,19.34
2018-03-04T10:36:23.139Z,18.79
2018-03-04T10:37:24.565Z,18.36
2018-03-04T10:38:25.978Z,18.07
2018-03-04T10:39:27.384Z,18.01
2018-03-04T10:40:28.792Z,17.89
2018-03-04T10:41:30.190Z,17.95
2018-03-04T10:42:31.567Z,18.10
2018-03-04T10:43:32.958Z,18.53
2018-03-04T10:44:34.386Z,18.19
2018-03-04T10:45:35.741Z,18.36
2018-03-04T10:46:37.167Z,18.39
2018-03-04T10:47:38.553Z,18.05
2018-03-04T10:48:39.942Z,18.01
2018-03-04T10:49:41.343Z,17.68
2018-03-04T10:50:42.745Z,17.24
2018-03-04T10:51:44.771Z,16.50
2018-03-04T10:52:46.165Z,16.01
2018-03-04T10:53:47.563Z,16.06
2018-03-04T10:54:48.969Z,15.52
2018-03-04T10:55:50.390Z,16.07
2018-03-04T10:56:51.785Z,16.50
2018-03-04T10:57:53.202Z,16.99
2018-03-04T10:58:54.613Z,16.73
2018-03-04T10:59:56.013Z,16.90
2018-03-04T11:00:57.374Z,17.40
2018-03-04T11:01:58.778Z,17.39
2018-03-04T11:03:00.181Z,16.08
2018-03-04T11:04:01.591Z,15.16
2018-03-04T11:05:02.992Z,15.01
2018-03-04T11:06:04.391Z,14.79
2018-03-04T11:07:05.803Z,14.59
2018-03-04T11:08:07.209Z,14.31
2018-03-04T11:09:08.619Z,13.65
2018-03-04T11:10:10.035Z,13.16
2018-03-04T11:11:11.454Z,12.46
2018-03-04T11:12:12.860Z,12.63
2018-03-04T11:13:14.258Z,13.10
2018-03-04T11:14:15.661Z,13.04
2018-03-04T11:15:17.722Z,12.81
2018-03-04T11:16:19.064Z,12.88
2018-03-04T11:17:20.460Z,12.51
2018-03-04T11:18:21.863Z,12.33
2018-03-04T11:19:23.260Z,11.93
2018-03-04T11:20:24.706Z,11.13
2018-03-04T11:21:26.083Z,10.16
2018-03-04T11:22:27.490Z,9.88
2018-03-04T11:23:28.898Z,9.52
2018-03-04T11:24:30.299Z,8.97
2018-03-04T11:25:31.687Z,8.80
2018-03-04T11:26:33.122Z,8.60
2018-03-04T11:27:34.519Z,8.67
2018-03-04T11:28:35.978Z,8.75
2018-03-04T11:29:37.296Z,8.86
2018-03-04T11:30:38.696Z,8.94
2018-03-04T11:31:40.110Z,9.23
2018-03-04T11:32:41.515Z,9.55
2018-03-04T11:33:42.900Z,10.07
2018-03-04T11:34:45.213Z,10.49
2018-03-04T11:35:46.613Z,11.13
2018-03-04T11:36:48.002Z,11.12
2018-03-04T11:37:49.406Z,10.91
2018-03-04T11:38:50.809Z,11.01
2018-03-04T11:39:52.205Z,10.93
2018-03-04T11:40:53.604Z,10.98
2018-03-04T11:41:55.004Z,10.62
2018-03-04T11:42:56.393Z,10.78
2018-03-04T11:43:57.783Z,10.44
2018-03-04T11:44:59.177Z,9.95
2018-03-04T11:46:00.612Z,9.58
2018-03-04T11:47:02.019Z,9.35
2018-03-04T11:48:03.416Z,9.03
2018-03-04T11:49:04.803Z,8.83
2018-03-04T11:50:06.199Z,9.00
2018-03-04T11:51:07.692Z,8.96
2018-03-04T11:52:09.088Z,9.40
2018-03-04T11:53:10.483Z,9.59
2018-03-04T11:54:11.892Z,9.53
2018-03-04T11:55:13.281Z,9.63
2018-03-04T11:56:14.706Z,9.30
2018-03-04T11:57:16.152Z,9.06
2018-03-04T11:58:17.545Z,9.00
2018-03-04T11:59:18.935Z,9.03
2018-03-04T12:00:20.332Z,9.44
2018-03-04T12:01:21.737Z,9.44
2018-03-04T12:02:23.132Z,9.38
2018-03-04T12:03:24.522Z,9.38
2018-03-04T12:04:25.924Z,9.59
2018-03-04T12:05:27.323Z,9.91
2018-03-04T12:06:28.725Z,9.96
2018-03-04T12:07:30.117Z,10.02
2018-03-04T12:08:31.514Z,9.80
2018-03-04T12:09:32.905Z,9.53
2018-03-04T12:10:34.294Z,9.77
2018-03-04T12:11:35.696Z,9.73
2018-03-04T12:12:37.098Z,9.56
2018-03-04T12:13:38.531Z,8.50
2018-03-04T12:14:39.936Z,8.32
2018-03-04T12:15:41.320Z,8.12
2018-03-04T12:16:42.708Z,8.39
2018-03-04T12:17:44.098Z,8.31
2018-03-04T12:18:45.504Z,8.14
2018-03-04T12:19:46.844Z,8.49
2018-03-04T12:20:48.258Z,8.71
2018-03-04T12:21:49.638Z,8.93
2018-03-04T12:22:51.037Z,8.91
2018-03-04T12:23:52.426Z,8.80
2018-03-04T12:24:53.861Z,8.70
2018-03-04T12:25:55.248Z,8.49
2018-03-04T12:26:56.639Z,8.58
2018-03-04T12:27:58.059Z,8.85
2018-03-04T12:28:59.543Z,8.80
2018-03-04T12:30:00.980Z,8.52
2018-03-04T12:31:02.377Z,8.85
2018-03-04T12:32:03.771Z,8.42
2018-03-04T12:33:05.159Z,8.71
2018-03-04T12:34:06.597Z,8.71
2018-03-04T12:35:08.015Z,8.60
2018-03-04T12:36:09.420Z,8.78
2018-03-04T12:37:10.823Z,8.85
2018-03-04T12:38:12.203Z,9.04
2018-03-04T12:39:13.601Z,9.22
2018-03-04T12:40:14.968Z,9.59
2018-03-04T12:41:16.380Z,9.53
2018-03-04T12:42:17.776Z,9.08
2018-03-04T12:43:19.169Z,8.97
2018-03-04T12:44:20.556Z,8.85
2018-03-04T12:45:21.938Z,9.32
2018-03-04T12:46:23.336Z,9.77
2018-03-04T12:47:24.721Z,10.20
2018-03-04T12:48:26.133Z,10.31
2018-03-04T12:49:27.528Z,9.91
2018-03-04T12:50:28.921Z,10.09
2018-03-04T12:51:30.260Z,9.91
2018-03-04T12:52:31.646Z,9.34
2018-03-04T12:53:33.026Z,8.63
2018-03-04T12:54:34.423Z,8.68
2018-03-04T12:55:35.829Z,8.28
2018-03-04T12:56:37.194Z,7.92
2018-03-04T12:57:38.593Z,7.96
2018-03-04T12:58:39.933Z,8.00
2018-03-04T12:59:41.331Z,8.21
2018-03-04T13:00:42.718Z,8.17
2018-03-04T13:01:44.086Z,8.25
2018-03-04T13:02:45.516Z,8.10
2018-03-04T13:03:46.867Z,7.92
2018-03-04T13:04:48.272Z,7.82
2018-03-04T13:05:49.664Z,7.85
2018-03-04T13:06:51.078Z,7.69
2018-03-04T13:07:52.456Z,7.37
2018-03-04T13:08:53.873Z,7.44
2018-03-04T13:09:55.273Z,7.32
2018-03-04T13:10:56.667Z,7.23
2018-03-04T13:11:58.044Z,7.07
2018-03-04T13:12:59.429Z,7.18
2018-03-04T13:14:00.852Z,7.08
2018-03-04T13:15:02.243Z,6.90
2018-03-04T13:16:03.698Z,6.79